Time;durP1;ratioP1;P1;durP2;ratioP2;P2;SDS_P1;SDS_P2;PMS_P1;PMS_P2;Temp;Humidity;BMP_temperature;BMP_pressure;BME280_temperature;BME280_humidity;BME280_pressure;Samples;Min_cycle;Max_cycle;Signal;HPM_P1;HPM_P2
2023/12/22 00:01:15;;;;;;;5.40;2.37;;;5.00;99.90;;;;;;4926279;29;20175;-64
2023/12/22 00:03:41;;;;;;;4.00;1.50;;;5.00;99.90;;;;;;4917934;29;20207;-62
2023/12/22 00:06:07;;;;;;;5.03;1.93;;;4.90;99.90;;;;;;4906635;29;20420;-63
2023/12/22 00:08:32;;;;;;;10.47;1.87;;;4.80;99.90;;;;;;4919849;29;20455;-63
2023/12/22 00:10:59;;;;;;;10.33;1.77;;;4.70;99.90;;;;;;4925428;29;20179;-62
2023/12/22 00:13:24;;;;;;;4.17;1.80;;;4.70;99.90;;;;;;4911985;29;20261;-61
2023/12/22 00:15:50;;;;;;;2.73;1.70;;;4.70;99.90;;;;;;4922566;29;20418;-61
2023/12/22 00:18:16;;;;;;;5.20;1.90;;;4.60;99.90;;;;;;4919410;29;20549;-63
2023/12/22 00:20:41;;;;;;;4.43;1.60;;;4.60;99.90;;;;;;4913105;29;20184;-60
2023/12/22 00:23:07;;;;;;;5.60;2.30;;;4.50;99.90;;;;;;4922896;29;20210;-61
2023/12/22 00:25:33;;;;;;;7.30;2.07;;;4.40;99.90;;;;;;4925882;29;20206;-63
2023/12/22 00:27:58;;;;;;;9.80;2.50;;;4.60;99.90;;;;;;4912553;29;20214;-61
2023/12/22 00:30:24;;;;;;;6.73;2.37;;;4.70;99.90;;;;;;4904276;29;20241;-64
2023/12/22 00:32:50;;;;;;;9.40;2.30;;;4.70;99.90;;;;;;4907291;29;20204;-60
2023/12/22 00:35:15;;;;;;;8.50;2.27;;;4.70;99.90;;;;;;4907636;29;20266;-59
2023/12/22 00:37:41;;;;;;;8.90;3.80;;;4.70;99.90;;;;;;4909775;29;20176;-62
2023/12/22 00:40:09;;;;;;;11.80;2.60;;;4.80;99.90;;;;;;4907565;29;20179;-59
2023/12/22 00:42:35;;;;;;;8.30;2.27;;;4.90;99.90;;;;;;4904905;29;20426;-62
2023/12/22 00:45:00;;;;;;;13.00;3.20;;;4.90;99.90;;;;;;4918019;29;20533;-61
2023/12/22 00:47:26;;;;;;;8.60;2.90;;;4.90;99.90;;;;;;4915322;29;20199;-61
2023/12/22 00:49:51;;;;;;;9.87;3.40;;;4.90;99.90;;;;;;4907935;29;20168;-60
2023/12/22 00:52:17;;;;;;;9.00;2.63;;;5.00;99.90;;;;;;4909586;29;20590;-61
2023/12/22 00:54:42;;;;;;;10.20;2.77;;;5.00;99.90;;;;;;4904534;29;20343;-63
2023/12/22 00:57:08;;;;;;;5.97;2.37;;;5.00;99.90;;;;;;4924282;29;20188;-60
2023/12/22 00:59:33;;;;;;;8.90;2.83;;;4.90;99.90;;;;;;4926245;29;20203;-60
2023/12/22 01:01:59;;;;;;;6.70;2.43;;;4.90;99.90;;;;;;4925658;29;20254;-61
2023/12/22 01:04:25;;;;;;;5.87;2.10;;;4.80;99.90;;;;;;4916799;29;20195;-63
2023/12/22 01:06:50;;;;;;;7.83;2.83;;;4.80;99.90;;;;;;4921994;29;20199;-60
2023/12/22 01:09:16;;;;;;;4.33;2.00;;;4.80;99.90;;;;;;4919707;29;20207;-61
2023/12/22 01:11:41;;;;;;;3.70;1.90;;;4.70;99.90;;;;;;4924002;29;20247;-61
2023/12/22 01:14:07;;;;;;;6.13;2.40;;;4.70;99.90;;;;;;4917744;29;20694;-63
2023/12/22 01:16:33;;;;;;;7.00;3.70;;;4.70;99.90;;;;;;4916160;29;20172;-63
2023/12/22 01:18:59;;;;;;;9.00;2.70;;;4.70;99.90;;;;;;4904732;29;20519;-60
2023/12/22 01:21:24;;;;;;;5.73;1.90;;;4.70;99.90;;;;;;4915595;29;20415;-60
2023/12/22 01:23:50;;;;;;;6.97;2.07;;;4.70;99.90;;;;;;4901879;29;20199;-62
2023/12/22 01:26:15;;;;;;;6.07;2.17;;;4.70;99.90;;;;;;4900854;29;20673;-60
2023/12/22 01:28:41;;;;;;;10.93;2.43;;;4.70;99.90;;;;;;4901676;29;20219;-55
2023/12/22 01:31:07;;;;;;;11.77;2.77;;;4.70;99.90;;;;;;4902751;29;20316;-59
2023/12/22 01:33:35;;;;;;;5.90;1.63;;;4.70;99.90;;;;;;4920388;29;20571;-63
2023/12/22 01:36:01;;;;;;;6.13;3.40;;;4.60;99.90;;;;;;4915893;29;20184;-63
2023/12/22 01:38:26;;;;;;;5.37;2.07;;;4.70;99.90;;;;;;4929606;29;20422;-63
2023/12/22 01:40:52;;;;;;;7.47;1.97;;;4.70;99.90;;;;;;4907962;29;20187;-62
2023/12/22 01:43:21;;;;;;;2.97;1.90;;;4.70;99.90;;;;;;4905513;29;20315;-62
2023/12/22 01:45:48;;;;;;;8.07;2.80;;;4.60;99.90;;;;;;4902840;29;20508;-63
2023/12/22 01:48:15;;;;;;;6.10;2.70;;;4.60;99.90;;;;;;4902371;29;20998;-62
2023/12/22 01:50:41;;;;;;;7.80;2.70;;;4.60;99.90;;;;;;4902279;29;20524;-63
2023/12/22 01:53:07;;;;;;;5.13;2.00;;;4.60;99.90;;;;;;4904126;29;20884;-63
2023/12/22 01:55:33;;;;;;;5.93;2.17;;;4.60;99.90;;;;;;4898751;29;20508;-63
2023/12/22 01:57:59;;;;;;;7.03;2.70;;;4.60;99.90;;;;;;4904677;29;20183;-63
2023/12/22 02:00:25;;;;;;;11.30;3.10;;;4.60;99.90;;;;;;4901148;29;20448;-63
2023/12/22 02:02:50;;;;;;;5.47;2.53;;;4.50;99.90;;;;;;4904943;29;20860;-63
2023/12/22 02:05:16;;;;;;;6.37;2.53;;;4.50;99.90;;;;;;4905852;29;20195;-62
2023/12/22 02:07:43;;;;;;;7.23;3.23;;;4.50;99.90;;;;;;4903145;29;20203;-63
2023/12/22 02:10:09;;;;;;;11.47;2.70;;;4.40;99.90;;;;;;4906928;29;20240;-65
2023/12/22 02:12:37;;;;;;;8.10;2.17;;;4.50;99.90;;;;;;4903876;29;20417;-62
2023/12/22 02:15:04;;;;;;;10.03;2.80;;;4.50;99.90;;;;;;4902859;29;20432;-62
2023/12/22 02:17:36;;;;;;;14.73;2.50;;;4.50;99.90;;;;;;4899570;29;20433;-63
2023/12/22 02:20:04;;;;;;;8.00;2.80;;;4.50;99.90;;;;;;4902536;29;20456;-62
2023/12/22 02:22:29;;;;;;;11.90;2.13;;;4.50;99.90;;;;;;4895352;29;20508;-62
2023/12/22 02:24:55;;;;;;;4.37;2.17;;;4.50;99.90;;;;;;4904188;29;20507;-62
2023/12/22 02:27:32;;;;;;;9.53;2.70;;;4.50;99.90;;;;;;4901199;29;20234;-61
2023/12/22 02:30:13;;;;;;;2.90;2.10;;;4.40;99.90;;;;;;4904121;29;20263;-63
2023/12/22 02:32:42;;;;;;;10.47;2.70;;;4.40;99.90;;;;;;4901325;29;20483;-63
2023/12/22 02:35:11;;;;;;;7.97;3.20;;;4.30;99.90;;;;;;4906805;29;20734;-63
2023/12/22 02:37:40;;;;;;;9.83;2.60;;;4.30;99.90;;;;;;4908078;29;20417;-63
2023/12/22 02:40:08;;;;;;;7.63;2.13;;;4.30;99.90;;;;;;4907201;29;20479;-63
2023/12/22 02:42:34;;;;;;;4.80;2.10;;;4.30;99.90;;;;;;4903414;29;20439;-63
2023/12/22 02:45:00;;;;;;;8.97;2.90;;;4.30;99.90;;;;;;4904468;29;20420;-63
2023/12/22 02:47:29;;;;;;;6.67;2.27;;;4.30;99.90;;;;;;4908987;29;20451;-63
2023/12/22 02:49:55;;;;;;;9.00;2.43;;;4.30;99.90;;;;;;4905295;29;20180;-62
2023/12/22 02:52:20;;;;;;;5.93;1.87;;;4.30;99.90;;;;;;4903617;29;20427;-62
2023/12/22 02:54:47;;;;;;;5.27;1.90;;;4.20;99.90;;;;;;4904527;29;20213;-63
2023/12/22 02:57:13;;;;;;;15.87;2.60;;;4.30;99.90;;;;;;4901601;29;20186;-64
2023/12/22 02:59:39;;;;;;;10.30;3.20;;;4.20;99.90;;;;;;4901014;29;20436;-64
2023/12/22 03:02:04;;;;;;;9.77;2.40;;;4.20;99.90;;;;;;4898262;29;20207;-64
2023/12/22 03:04:30;;;;;;;5.20;2.20;;;4.20;99.90;;;;;;4900238;29;20607;-65
2023/12/22 03:06:56;;;;;;;7.27;2.60;;;4.20;99.90;;;;;;4899859;29;20904;-62
2023/12/22 03:09:22;;;;;;;8.97;2.13;;;4.20;99.90;;;;;;4901658;29;20426;-64
2023/12/22 03:11:48;;;;;;;7.03;1.70;;;4.20;99.90;;;;;;4897299;29;20188;-64
2023/12/22 03:14:14;;;;;;;10.90;2.33;;;4.20;99.90;;;;;;4898753;29;20244;-65
2023/12/22 03:16:40;;;;;;;8.43;2.10;;;4.20;99.90;;;;;;4902755;29;20417;-64
2023/12/22 03:19:07;;;;;;;14.43;2.47;;;4.10;99.90;;;;;;4901184;29;20283;-64
2023/12/22 03:21:32;;;;;;;5.17;1.17;;;4.00;99.90;;;;;;4900122;29;21393;-65
2023/12/22 03:23:58;;;;;;;4.70;1.83;;;4.00;99.90;;;;;;4901013;29;20468;-65
2023/12/22 03:26:27;;;;;;;3.57;1.53;;;4.00;99.90;;;;;;4906436;29;20687;-64
2023/12/22 03:28:53;;;;;;;6.33;1.53;;;3.90;99.90;;;;;;4899662;29;20214;-64
2023/12/22 03:31:18;;;;;;;4.27;1.67;;;3.90;99.90;;;;;;4903965;29;20414;-64
2023/12/22 03:33:44;;;;;;;2.70;1.30;;;3.90;99.90;;;;;;4899827;29;20263;-64
2023/12/22 03:36:09;;;;;;;5.87;1.63;;;3.90;99.90;;;;;;4902884;29;20263;-64
2023/12/22 03:38:35;;;;;;;11.47;1.80;;;3.90;99.90;;;;;;4902008;29;20660;-64
2023/12/22 03:41:00;;;;;;;6.00;2.07;;;3.90;99.90;;;;;;4896947;29;20184;-63
2023/12/22 03:43:26;;;;;;;5.90;3.57;;;3.90;99.90;;;;;;4902684;29;20202;-63
2023/12/22 03:45:52;;;;;;;3.73;1.40;;;3.80;99.90;;;;;;4903075;29;20184;-64
2023/12/22 03:48:17;;;;;;;8.43;2.23;;;3.80;99.90;;;;;;4899678;29;20229;-63
2023/12/22 03:50:43;;;;;;;2.70;1.57;;;3.90;99.90;;;;;;4902848;29;20577;-61
2023/12/22 03:53:09;;;;;;;6.27;1.40;;;3.90;99.90;;;;;;4901695;29;20620;-62
2023/12/22 03:55:34;;;;;;;10.03;2.20;;;3.90;99.90;;;;;;4898171;29;20188;-63
2023/12/22 03:58:00;;;;;;;5.43;1.73;;;3.90;99.90;;;;;;4901685;29;20235;-61
2023/12/22 04:00:26;;;;;;;6.30;1.90;;;3.90;99.90;;;;;;4898678;29;20229;-63
2023/12/22 04:02:52;;;;;;;4.00;2.03;;;4.00;99.90;;;;;;4899244;29;20760;-62
2023/12/22 04:05:17;;;;;;;4.77;1.60;;;4.00;99.90;;;;;;4890721;29;20180;-62
2023/12/22 04:07:43;;;;;;;5.20;1.73;;;4.00;99.90;;;;;;4901809;29;20223;-62
2023/12/22 04:10:08;;;;;;;3.63;1.60;;;4.10;99.90;;;;;;4897089;29;20187;-63
2023/12/22 04:12:34;;;;;;;5.10;1.97;;;4.10;99.90;;;;;;4899450;29;20190;-61
2023/12/22 04:15:00;;;;;;;1.83;1.00;;;4.20;99.90;;;;;;4902781;29;20192;-62
2023/12/22 04:17:25;;;;;;;6.60;1.50;;;4.20;99.90;;;;;;4903740;29;20237;-63
2023/12/22 04:19:52;;;;;;;2.27;1.40;;;4.10;99.90;;;;;;4902536;29;20184;-62
2023/12/22 04:22:18;;;;;;;3.13;1.13;;;4.10;99.90;;;;;;4903282;29;20236;-63
2023/12/22 04:24:43;;;;;;;2.43;1.17;;;4.00;99.90;;;;;;4902647;29;20951;-61
2023/12/22 04:27:09;;;;;;;3.90;1.50;;;4.00;99.90;;;;;;4901296;29;20265;-63
2023/12/22 04:29:34;;;;;;;3.00;1.60;;;4.00;99.90;;;;;;4898445;29;20179;-61
2023/12/22 04:32:00;;;;;;;3.33;1.07;;;4.00;99.90;;;;;;4899595;29;20271;-64
2023/12/22 04:34:25;;;;;;;3.00;1.30;;;3.90;99.90;;;;;;4902139;29;20311;-64
2023/12/22 04:36:51;;;;;;;4.00;1.40;;;3.90;99.90;;;;;;4891880;29;20695;-61
2023/12/22 04:39:17;;;;;;;3.50;1.53;;;3.90;99.90;;;;;;4896955;29;20184;-61
2023/12/22 04:41:42;;;;;;;5.70;1.90;;;3.80;99.90;;;;;;4900544;29;20184;-63
2023/12/22 04:44:08;;;;;;;3.40;1.13;;;3.80;99.90;;;;;;4901243;29;20216;-63
2023/12/22 04:46:33;;;;;;;2.17;1.10;;;3.80;99.90;;;;;;4903816;29;20215;-61
2023/12/22 04:48:59;;;;;;;2.83;1.37;;;3.80;99.90;;;;;;4901236;29;20680;-60
2023/12/22 04:51:24;;;;;;;8.67;1.37;;;3.90;99.90;;;;;;4901342;29;20287;-63
2023/12/22 04:53:50;;;;;;;4.07;1.87;;;3.90;99.90;;;;;;4901225;29;20667;-63
2023/12/22 04:56:15;;;;;;;5.53;1.20;;;3.90;99.90;;;;;;4901415;29;20203;-63
2023/12/22 04:58:41;;;;;;;1.97;1.00;;;3.90;99.90;;;;;;4902097;29;20230;-64
2023/12/22 05:01:07;;;;;;;5.03;1.93;;;3.80;99.90;;;;;;4903020;29;20689;-63
2023/12/22 05:03:32;;;;;;;2.70;1.20;;;3.80;99.90;;;;;;4898027;29;20196;-63
2023/12/22 05:05:58;;;;;;;3.30;1.43;;;3.80;99.90;;;;;;4900181;29;20271;-61
2023/12/22 05:08:23;;;;;;;3.43;1.80;;;3.70;99.90;;;;;;4902935;29;20231;-62
2023/12/22 05:10:49;;;;;;;3.00;1.50;;;3.70;99.90;;;;;;4903990;29;20276;-61
2023/12/22 05:13:15;;;;;;;2.60;0.97;;;3.50;99.90;;;;;;4901136;29;20199;-62
2023/12/22 05:15:40;;;;;;;1.33;0.90;;;3.50;99.90;;;;;;4905717;29;20219;-64
2023/12/22 05:18:06;;;;;;;1.33;0.80;;;3.40;99.90;;;;;;4901995;29;20280;-64
2023/12/22 05:20:32;;;;;;;1.47;1.00;;;3.30;99.90;;;;;;4903414;29;20184;-64
2023/12/22 05:22:58;;;;;;;1.10;0.90;;;3.20;99.90;;;;;;4906285;29;20208;-63
2023/12/22 05:25:24;;;;;;;4.33;1.50;;;3.20;99.90;;;;;;4904643;29;20207;-64
2023/12/22 05:27:49;;;;;;;2.90;1.23;;;3.20;99.90;;;;;;4900944;29;20804;-62
2023/12/22 05:30:15;;;;;;;1.10;0.83;;;3.20;99.90;;;;;;4895355;29;20611;-61
2023/12/22 05:32:41;;;;;;;2.60;1.00;;;3.10;99.90;;;;;;4903109;29;20219;-63
2023/12/22 05:35:07;;;;;;;3.87;1.20;;;3.10;99.90;;;;;;4903105;29;20180;-63
2023/12/22 05:37:32;;;;;;;1.10;1.00;;;3.20;99.90;;;;;;4901737;29;20216;-64
2023/12/22 05:39:58;;;;;;;5.27;2.20;;;3.20;99.90;;;;;;4901523;29;20188;-64
2023/12/22 05:42:23;;;;;;;4.23;1.30;;;3.20;99.90;;;;;;4899862;29;21271;-63
2023/12/22 05:44:49;;;;;;;4.00;1.00;;;3.20;99.90;;;;;;4903049;29;20188;-62
2023/12/22 05:47:16;;;;;;;1.83;1.10;;;3.20;99.90;;;;;;4900718;29;20243;-63
2023/12/22 05:49:42;;;;;;;2.13;1.10;;;3.20;99.90;;;;;;4903668;29;20484;-64
2023/12/22 05:52:09;;;;;;;2.77;1.00;;;3.20;99.90;;;;;;4901528;29;20834;-61
2023/12/22 05:54:35;;;;;;;2.70;1.20;;;3.20;99.90;;;;;;4904029;29;20200;-61
2023/12/22 05:57:04;;;;;;;4.80;1.10;;;3.20;99.90;;;;;;4901777;29;20497;-62
2023/12/22 05:59:32;;;;;;;3.60;1.30;;;3.20;99.90;;;;;;4903022;29;20930;-62
2023/12/22 06:01:58;;;;;;;1.27;0.90;;;3.20;99.90;;;;;;4902873;29;20442;-61
2023/12/22 06:04:24;;;;;;;4.30;1.30;;;3.20;99.90;;;;;;4900253;29;20463;-61
2023/12/22 06:06:50;;;;;;;1.10;1.00;;;3.20;99.90;;;;;;4905411;29;20420;-59
2023/12/22 06:09:18;;;;;;;4.33;1.53;;;3.20;99.90;;;;;;4903492;29;20455;-63
2023/12/22 06:11:46;;;;;;;4.90;1.17;;;3.20;99.90;;;;;;4903663;29;20185;-62
2023/12/22 06:14:12;;;;;;;4.57;1.67;;;3.30;99.90;;;;;;4902099;29;20448;-60
2023/12/22 06:16:37;;;;;;;1.87;1.30;;;3.30;99.90;;;;;;4903949;29;20421;-63
2023/12/22 06:19:03;;;;;;;1.57;1.10;;;3.30;99.90;;;;;;4901010;29;20216;-63
2023/12/22 06:21:29;;;;;;;4.30;1.23;;;3.30;99.90;;;;;;4893250;29;20216;-62
2023/12/22 06:23:54;;;;;;;2.40;1.80;;;3.30;99.90;;;;;;4905220;29;20203;-62
2023/12/22 06:26:20;;;;;;;8.80;2.37;;;3.20;99.90;;;;;;4904655;29;20207;-62
2023/12/22 06:28:46;;;;;;;7.03;1.10;;;3.20;99.90;;;;;;4904794;29;20219;-63
2023/12/22 06:31:20;;;;;;;1.37;0.80;;;3.20;99.90;;;;;;4904914;29;20215;-61
2023/12/22 06:33:46;;;;;;;6.00;1.20;;;3.20;99.90;;;;;;4904625;29;20220;-60
2023/12/22 06:36:25;;;;;;;3.40;1.50;;;3.20;99.90;;;;;;4905675;29;20484;-62
2023/12/22 06:38:53;;;;;;;2.30;1.27;;;3.30;99.90;;;;;;4906653;29;20437;-63
2023/12/22 06:41:22;;;;;;;2.20;0.80;;;3.30;99.90;;;;;;4907248;29;20428;-63
2023/12/22 06:43:48;;;;;;;1.87;1.00;;;3.30;99.90;;;;;;4899974;29;20452;-62
2023/12/22 06:46:18;;;;;;;4.23;1.53;;;3.30;99.90;;;;;;4904807;29;20515;-63
2023/12/22 06:48:44;;;;;;;2.97;1.27;;;3.40;99.90;;;;;;4902984;29;20532;-64
2023/12/22 06:51:22;;;;;;;5.17;1.60;;;3.30;99.90;;;;;;4903293;29;20420;-63
2023/12/22 06:53:48;;;;;;;3.10;1.27;;;3.20;99.90;;;;;;4903070;29;20451;-62
2023/12/22 06:56:21;;;;;;;2.67;1.33;;;3.00;99.90;;;;;;4904091;29;20425;-62
2023/12/22 06:58:48;;;;;;;5.83;2.43;;;3.00;99.90;;;;;;4905267;29;21010;-62
2023/12/22 07:01:29;;;;;;;2.13;1.53;;;2.90;99.90;;;;;;4898855;29;20563;-62
2023/12/22 07:03:56;;;;;;;3.73;1.23;;;2.80;99.90;;;;;;4897748;29;20455;-62
2023/12/22 07:06:23;;;;;;;2.33;1.10;;;2.70;99.90;;;;;;4899508;29;20927;-61
2023/12/22 07:09:11;;;;;;;0.80;0.80;;;2.70;99.90;;;;;;4901568;29;20480;-62
2023/12/22 07:11:37;;;;;;;6.53;1.40;;;2.70;99.90;;;;;;4901391;29;20934;-63
2023/12/22 07:14:02;;;;;;;3.70;1.80;;;2.60;99.90;;;;;;4900446;29;20437;-63
2023/12/22 07:16:28;;;;;;;2.60;1.43;;;2.70;99.90;;;;;;4895913;29;20464;-62
2023/12/22 07:18:54;;;;;;;1.20;1.03;;;2.70;99.90;;;;;;4898553;29;20189;-62
2023/12/22 07:21:20;;;;;;;1.43;1.20;;;2.80;99.90;;;;;;4903480;29;22435;-63
2023/12/22 07:23:45;;;;;;;1.80;1.50;;;2.80;99.90;;;;;;4901082;29;20747;-63
2023/12/22 07:26:11;;;;;;;1.53;1.10;;;2.80;99.90;;;;;;4903545;29;20526;-63
2023/12/22 07:28:36;;;;;;;2.60;1.20;;;2.80;99.90;;;;;;4898184;29;20242;-63
2023/12/22 07:31:02;;;;;;;3.37;1.23;;;2.80;99.90;;;;;;4900642;29;20332;-63
2023/12/22 07:33:28;;;;;;;3.27;1.90;;;2.80;99.90;;;;;;4898668;29;20580;-63
2023/12/22 07:35:54;;;;;;;3.07;1.13;;;2.90;99.90;;;;;;4900215;29;20274;-63
2023/12/22 07:38:20;;;;;;;2.30;1.37;;;3.00;99.90;;;;;;4902443;29;20944;-61
2023/12/22 07:40:45;;;;;;;5.57;1.70;;;3.10;99.90;;;;;;4898847;29;20429;-64
2023/12/22 07:43:11;;;;;;;4.90;2.30;;;3.10;99.90;;;;;;4904914;29;20204;-62
2023/12/22 07:45:37;;;;;;;2.20;1.50;;;3.10;99.90;;;;;;4901090;29;20271;-63
2023/12/22 07:48:03;;;;;;;4.70;2.13;;;3.20;99.90;;;;;;4898814;29;20292;-62
2023/12/22 07:50:29;;;;;;;2.77;1.47;;;3.10;99.90;;;;;;4905659;29;20874;-62
2023/12/22 07:52:55;;;;;;;9.13;1.80;;;3.10;99.90;;;;;;4900845;29;20451;-62
2023/12/22 07:55:20;;;;;;;6.30;1.77;;;3.20;99.90;;;;;;4911082;29;20889;-62
2023/12/22 07:57:46;;;;;;;3.93;1.47;;;3.20;99.90;;;;;;4901207;29;20191;-60
2023/12/22 08:00:12;;;;;;;2.80;1.20;;;3.30;99.90;;;;;;4887283;29;20235;-64
2023/12/22 08:02:38;;;;;;;12.40;1.57;;;3.30;99.90;;;;;;4903994;29;20504;-64
2023/12/22 08:05:04;;;;;;;3.13;1.37;;;3.40;99.90;;;;;;4903668;29;20423;-62
2023/12/22 08:07:30;;;;;;;3.73;1.73;;;3.40;99.90;;;;;;4903111;29;20207;-63
2023/12/22 08:09:56;;;;;;;6.27;1.83;;;3.40;99.90;;;;;;4903155;29;20551;-61
2023/12/22 08:12:23;;;;;;;4.67;1.30;;;3.50;99.90;;;;;;4906192;29;20427;-63
2023/12/22 08:14:48;;;;;;;5.97;1.63;;;3.40;99.90;;;;;;4902931;29;20416;-63
2023/12/22 08:17:14;;;;;;;3.13;1.53;;;3.40;99.90;;;;;;4906726;29;20911;-63
2023/12/22 08:19:43;;;;;;;3.07;1.63;;;3.30;99.90;;;;;;4904374;29;20211;-63
2023/12/22 08:22:10;;;;;;;2.70;1.27;;;3.40;99.90;;;;;;4903255;29;20188;-64
2023/12/22 08:24:36;;;;;;;2.80;0.90;;;3.30;99.90;;;;;;4896512;29;20452;-63
2023/12/22 08:27:02;;;;;;;2.90;1.27;;;3.30;99.90;;;;;;4900699;29;20483;-62
2023/12/22 08:29:27;;;;;;;2.60;0.90;;;3.30;99.90;;;;;;4901981;29;20670;-62
2023/12/22 08:31:53;;;;;;;2.30;1.00;;;3.30;99.90;;;;;;4900135;29;20427;-62
2023/12/22 08:34:19;;;;;;;10.23;1.40;;;3.30;99.90;;;;;;4901863;29;20682;-62
2023/12/22 08:36:45;;;;;;;8.40;1.40;;;3.20;99.90;;;;;;4904619;29;20521;-60
2023/12/22 08:39:10;;;;;;;1.77;0.90;;;3.20;99.90;;;;;;4902424;29;20239;-60
2023/12/22 08:41:37;;;;;;;8.53;1.60;;;3.20;99.90;;;;;;4895871;29;20347;-62
2023/12/22 08:44:06;;;;;;;6.30;1.33;;;3.20;99.90;;;;;;4903288;29;20196;-61
2023/12/22 08:46:32;;;;;;;2.00;1.20;;;3.20;99.90;;;;;;4901355;29;20479;-63
2023/12/22 08:48:59;;;;;;;4.20;2.07;;;3.20;99.90;;;;;;4896030;29;20557;-63
2023/12/22 08:51:25;;;;;;;4.20;1.73;;;3.20;99.90;;;;;;4901807;29;20516;-63
2023/12/22 08:53:52;;;;;;;4.40;1.50;;;3.20;99.90;;;;;;4894317;29;20450;-66
2023/12/22 08:56:18;;;;;;;3.00;1.50;;;3.30;99.90;;;;;;4904005;29;20468;-65
2023/12/22 08:58:43;;;;;;;4.00;1.30;;;3.30;99.90;;;;;;4902937;29;20459;-68
2023/12/22 09:01:15;;;;;;;5.43;2.50;;;3.30;99.90;;;;;;4902209;29;20195;-64
2023/12/22 09:03:45;;;;;;;9.27;1.87;;;3.30;99.90;;;;;;4902161;29;20702;-64
2023/12/22 09:06:15;;;;;;;8.47;1.90;;;3.30;99.90;;;;;;4903289;29;20468;-64
2023/12/22 09:08:41;;;;;;;7.80;2.00;;;3.30;99.90;;;;;;4902498;29;20468;-62
2023/12/22 09:11:06;;;;;;;4.47;2.03;;;3.30;99.90;;;;;;4905330;29;20958;-64
2023/12/22 09:13:32;;;;;;;5.00;1.90;;;3.40;99.90;;;;;;4905398;29;20950;-63
2023/12/22 09:15:58;;;;;;;8.83;1.13;;;3.50;99.90;;;;;;4904122;29;20187;-66
2023/12/22 09:18:23;;;;;;;5.07;1.93;;;3.60;99.90;;;;;;4904145;29;20472;-63
2023/12/22 09:20:49;;;;;;;4.40;1.93;;;3.60;99.90;;;;;;4902457;29;20435;-63
2023/12/22 09:23:15;;;;;;;9.07;2.07;;;3.70;99.90;;;;;;4903511;29;20683;-65
2023/12/22 09:25:41;;;;;;;4.30;1.77;;;3.70;99.90;;;;;;4907752;29;20180;-64
2023/12/22 09:28:06;;;;;;;9.60;2.73;;;3.80;99.90;;;;;;4907418;29;20195;-62
2023/12/22 09:30:32;;;;;;;3.13;1.30;;;3.80;99.90;;;;;;4906839;29;20798;-64
2023/12/22 09:32:58;;;;;;;3.30;1.70;;;3.80;99.90;;;;;;4904311;29;20626;-62
2023/12/22 09:35:25;;;;;;;4.70;2.23;;;3.80;99.90;;;;;;4907374;29;20475;-64
2023/12/22 09:37:51;;;;;;;4.10;1.70;;;3.90;99.90;;;;;;4908886;29;20240;-63
2023/12/22 09:40:21;;;;;;;7.40;2.10;;;4.00;99.90;;;;;;4908794;29;20781;-62
2023/12/22 09:42:47;;;;;;;6.03;1.60;;;4.00;99.90;;;;;;4905847;29;20515;-63
2023/12/22 09:45:18;;;;;;;5.50;1.87;;;4.10;99.90;;;;;;4903442;29;20412;-62
2023/12/22 09:47:45;;;;;;;10.37;2.20;;;4.10;99.90;;;;;;4905842;29;20476;-64
2023/12/22 09:50:15;;;;;;;5.93;1.90;;;4.10;99.90;;;;;;4907077;29;20878;-63
2023/12/22 09:52:45;;;;;;;2.90;1.70;;;4.10;99.90;;;;;;4902789;29;20435;-65
2023/12/22 09:55:15;;;;;;;11.70;2.70;;;4.20;99.90;;;;;;4903970;29;20462;-66
2023/12/22 09:57:42;;;;;;;4.63;2.10;;;4.10;99.90;;;;;;4905036;29;20437;-65
2023/12/22 10:00:12;;;;;;;12.10;4.20;;;4.10;99.90;;;;;;4909224;29;20420;-64
2023/12/22 10:02:39;;;;;;;7.20;2.53;;;4.20;99.90;;;;;;4904709;29;20456;-62
2023/12/22 10:05:05;;;;;;;12.43;1.73;;;4.30;99.90;;;;;;4905589;29;20468;-60
2023/12/22 10:07:33;;;;;;;6.30;1.87;;;4.30;99.90;;;;;;4909736;29;20460;-62
2023/12/22 10:10:00;;;;;;;9.67;3.17;;;4.30;99.90;;;;;;4904381;29;20416;-61
2023/12/22 10:12:30;;;;;;;6.93;2.60;;;4.30;99.90;;;;;;4908558;29;20776;-61
2023/12/22 10:15:00;;;;;;;5.20;2.40;;;4.40;99.90;;;;;;4906529;29;20892;-59
2023/12/22 10:17:26;;;;;;;4.23;2.40;;;4.30;99.90;;;;;;4902493;29;20420;-63
2023/12/22 10:19:52;;;;;;;10.30;2.70;;;4.40;99.90;;;;;;4917992;29;20800;-64
2023/12/22 10:22:18;;;;;;;9.17;2.13;;;4.40;99.90;;;;;;4911107;29;20416;-60
2023/12/22 10:24:50;;;;;;;6.70;2.20;;;4.50;99.90;;;;;;4918921;29;20491;-61
2023/12/22 10:27:21;;;;;;;5.33;1.80;;;4.60;99.90;;;;;;4908797;29;20500;-64
2023/12/22 10:29:49;;;;;;;14.40;2.40;;;4.70;99.90;;;;;;4909416;29;20495;-65
2023/12/22 10:32:14;;;;;;;12.77;3.30;;;4.70;99.90;;;;;;4908576;29;20496;-67
2023/12/22 10:34:40;;;;;;;5.70;1.97;;;4.70;99.90;;;;;;4906401;29;20846;-63
2023/12/22 10:37:05;;;;;;;8.00;2.07;;;4.60;99.90;;;;;;4905767;29;20184;-66
2023/12/22 10:39:32;;;;;;;7.80;2.30;;;4.70;99.90;;;;;;4905769;29;20176;-65
2023/12/22 10:41:58;;;;;;;11.20;2.47;;;4.70;99.90;;;;;;4900103;29;20174;-67
2023/12/22 10:44:28;;;;;;;5.77;2.30;;;4.70;99.90;;;;;;4912979;29;20484;-63
2023/12/22 10:46:54;;;;;;;12.93;2.67;;;4.80;99.90;;;;;;4904360;29;20550;-63
2023/12/22 10:49:21;;;;;;;7.07;2.60;;;4.80;99.90;;;;;;4908302;29;20539;-63
2023/12/22 10:51:47;;;;;;;6.73;2.47;;;4.90;99.90;;;;;;4915795;29;20478;-64
2023/12/22 10:54:13;;;;;;;5.37;2.60;;;4.90;99.90;;;;;;4918076;29;21020;-64
2023/12/22 10:56:40;;;;;;;8.60;2.40;;;4.90;99.90;;;;;;4919071;29;20259;-64
2023/12/22 10:59:06;;;;;;;7.13;2.20;;;4.90;99.90;;;;;;4911660;29;20602;-63
2023/12/22 11:01:38;;;;;;;5.07;1.70;;;4.90;99.90;;;;;;4921473;29;20430;-64
2023/12/22 11:04:06;;;;;;;15.23;2.70;;;4.80;99.90;;;;;;4907871;29;20966;-63
2023/12/22 11:06:36;;;;;;;4.90;3.00;;;4.90;99.90;;;;;;4918942;29;20426;-64
2023/12/22 11:09:06;;;;;;;2.87;1.50;;;4.90;99.90;;;;;;4911083;29;20468;-63
2023/12/22 11:11:37;;;;;;;7.67;2.40;;;4.80;99.90;;;;;;4922618;29;20425;-64
2023/12/22 11:14:04;;;;;;;5.37;2.27;;;4.80;99.90;;;;;;4913888;29;20786;-62
2023/12/22 11:16:31;;;;;;;4.50;1.43;;;4.80;99.90;;;;;;4916625;29;20551;-63
2023/12/22 11:18:57;;;;;;;8.30;2.03;;;4.80;99.90;;;;;;4901562;29;20433;-63
2023/12/22 11:21:23;;;;;;;3.07;1.47;;;4.80;99.90;;;;;;4906893;29;20444;-63
2023/12/22 11:23:53;;;;;;;4.43;1.63;;;4.80;99.90;;;;;;4904001;29;20689;-63
2023/12/22 11:26:20;;;;;;;7.30;2.20;;;4.80;99.90;;;;;;4902262;29;20440;-63
2023/12/22 11:28:47;;;;;;;4.63;1.87;;;4.90;99.90;;;;;;4911370;29;20475;-64
2023/12/22 11:31:14;;;;;;;5.87;1.80;;;4.80;99.90;;;;;;4909143;29;20981;-63
2023/12/22 11:33:50;;;;;;;5.07;1.60;;;4.80;99.90;;;;;;4904799;29;20458;-63
2023/12/22 11:36:17;;;;;;;3.40;1.60;;;4.80;99.90;;;;;;4901400;29;20428;-64
2023/12/22 11:38:46;;;;;;;7.50;2.07;;;4.80;99.90;;;;;;4907146;29;20428;-64
2023/12/22 11:41:27;;;;;;;5.57;1.83;;;4.80;99.90;;;;;;4912358;29;20443;-63
2023/12/22 11:43:54;;;;;;;7.10;1.90;;;4.90;99.90;;;;;;4901311;29;20545;-62
2023/12/22 11:46:20;;;;;;;7.37;4.03;;;4.90;99.90;;;;;;4904538;29;20420;-63
2023/12/22 11:48:50;;;;;;;8.67;2.43;;;4.90;99.90;;;;;;4916285;29;20558;-64
2023/12/22 11:51:18;;;;;;;8.20;1.73;;;4.90;99.90;;;;;;4900986;29;20441;-64
2023/12/22 11:53:44;;;;;;;5.90;2.23;;;4.90;99.90;;;;;;4903256;29;20448;-64
2023/12/22 11:56:12;;;;;;;4.47;1.90;;;4.80;99.90;;;;;;4910699;29;20420;-62
2023/12/22 11:58:52;;;;;;;6.00;2.90;;;4.80;99.90;;;;;;4899942;29;20443;-63
2023/12/22 12:01:25;;;;;;;6.93;2.33;;;4.80;99.90;;;;;;4899613;29;20455;-64
2023/12/22 12:03:59;;;;;;;3.90;2.37;;;4.80;99.90;;;;;;4911493;29;20475;-63
2023/12/22 12:06:25;;;;;;;8.33;2.03;;;4.80;99.90;;;;;;4901138;29;20419;-63
2023/12/22 12:08:51;;;;;;;5.73;1.73;;;4.90;99.90;;;;;;4899672;29;20467;-63
2023/12/22 12:11:20;;;;;;;6.47;2.70;;;4.80;99.90;;;;;;4916883;29;20212;-65
2023/12/22 12:13:46;;;;;;;5.23;1.57;;;5.00;99.90;;;;;;4908102;29;21882;-65
2023/12/22 12:16:21;;;;;;;11.30;2.43;;;5.00;99.90;;;;;;4908892;29;20468;-64
2023/12/22 12:18:47;;;;;;;7.67;2.27;;;4.90;99.90;;;;;;4897977;29;20431;-64
2023/12/22 12:21:12;;;;;;;4.33;1.43;;;4.90;99.90;;;;;;4905098;29;20431;-64
2023/12/22 12:23:38;;;;;;;8.13;2.10;;;5.00;99.90;;;;;;4900126;29;20227;-64
2023/12/22 12:26:08;;;;;;;6.20;2.43;;;5.00;99.90;;;;;;4936063;23;20543;-61
2023/12/22 12:28:35;;;;;;;6.90;2.13;;;4.80;99.90;;;;;;4907545;29;20531;-62
2023/12/22 12:31:08;;;;;;;12.73;1.80;;;4.80;99.90;;;;;;4914043;29;20427;-62
2023/12/22 12:33:37;;;;;;;4.50;1.47;;;4.90;99.90;;;;;;4913821;29;20973;-61
2023/12/22 12:36:06;;;;;;;6.07;2.27;;;4.90;99.90;;;;;;4911784;29;20428;-63
2023/12/22 12:38:42;;;;;;;6.97;1.60;;;4.90;99.90;;;;;;4912970;29;20412;-65
2023/12/22 12:41:13;;;;;;;4.53;1.93;;;4.90;99.90;;;;;;4898679;29;20427;-61
2023/12/22 12:43:43;;;;;;;13.97;4.37;;;5.00;99.90;;;;;;4904867;29;20421;-61
2023/12/22 12:46:09;;;;;;;7.40;1.43;;;4.90;99.90;;;;;;4889133;29;20424;-62
2023/12/22 12:48:34;;;;;;;8.53;2.10;;;4.90;99.90;;;;;;4899486;29;20475;-64
2023/12/22 12:51:06;;;;;;;6.83;2.00;;;4.90;99.90;;;;;;4889112;29;20524;-61
2023/12/22 12:53:33;;;;;;;4.37;2.20;;;4.80;99.90;;;;;;4896339;29;20221;-62